createdAt,value
2018-09-04T00:00:15.872Z,83.35
2018-09-04T00:02:43.323Z,83.95
2018-09-04T00:05:10.533Z,83.46
2018-09-04T00:07:37.630Z,83.18
2018-09-04T00:10:06.222Z,83.54
2018-09-04T00:12:33.322Z,83.44
2018-09-04T00:15:00.453Z,84.19
2018-09-04T00:17:27.573Z,83.34
2018-09-04T00:19:54.665Z,84.38
2018-09-04T00:22:21.788Z,84.44
2018-09-04T00:24:48.929Z,84.46
2018-09-04T00:27:16.073Z,84.76
2018-09-04T00:29:43.174Z,84.22
2018-09-04T00:32:10.359Z,83.97
2018-09-04T00:34:37.493Z,84.90
2018-09-04T00:37:04.620Z,84.31
2018-09-04T00:39:31.701Z,84.26
2018-09-04T00:41:58.886Z,84.03
2018-09-04T00:44:26.070Z,83.86
2018-09-04T00:46:53.228Z,83.78
2018-09-04T00:49:20.346Z,84.43
2018-09-04T00:51:47.473Z,83.56
2018-09-04T00:54:14.570Z,84.24
2018-09-04T00:56:41.845Z,84.25
2018-09-04T00:59:09.065Z,84.01
2018-09-04T01:01:36.384Z,84.19
2018-09-04T01:04:03.482Z,84.49
2018-09-04T01:06:30.690Z,84.89
2018-09-04T01:08:57.825Z,85.03
2018-09-04T01:11:24.933Z,85.25
2018-09-04T01:13:52.069Z,85.05
2018-09-04T01:16:19.153Z,84.32
2018-09-04T01:18:46.258Z,84.62
2018-09-04T01:21:13.349Z,84.83
2018-09-04T01:23:40.814Z,84.34
2018-09-04T01:26:07.912Z,85.56
2018-09-04T01:28:35.170Z,84.95
2018-09-04T01:31:02.301Z,85.79
2018-09-04T01:33:29.501Z,85.74
2018-09-04T01:35:56.594Z,85.17
2018-09-04T01:38:23.714Z,84.87
2018-09-04T01:40:50.806Z,84.59
2018-09-04T01:43:17.926Z,84.53
2018-09-04T01:45:45.048Z,84.33
2018-09-04T01:48:12.913Z,85.29
2018-09-04T01:50:40.417Z,85.00
2018-09-04T01:53:07.558Z,86.27
2018-09-04T01:55:34.665Z,85.83
2018-09-04T01:58:01.737Z,85.91
2018-09-04T02:00:28.906Z,85.46
2018-09-04T02:02:55.996Z,85.78
2018-09-04T02:05:23.146Z,85.95
2018-09-04T02:07:50.241Z,85.51
2018-09-04T02:10:17.353Z,85.33
2018-09-04T02:12:44.494Z,85.24
2018-09-04T02:15:11.600Z,85.84
2018-09-04T02:17:38.721Z,85.26
2018-09-04T02:20:05.850Z,86.13
2018-09-04T02:22:32.978Z,86.62
2018-09-04T02:25:00.090Z,85.28
2018-09-04T02:27:27.193Z,86.06
2018-09-04T02:29:54.339Z,85.80
2018-09-04T02:32:21.417Z,85.39
2018-09-04T02:34:48.562Z,85.35
2018-09-04T02:37:15.658Z,86.44
2018-09-04T02:39:42.762Z,85.64
2018-09-04T02:42:09.883Z,86.44
2018-09-04T02:44:37.025Z,85.87
2018-09-04T02:47:04.171Z,86.38
2018-09-04T02:49:31.245Z,85.50
2018-09-04T02:51:58.334Z,86.29
2018-09-04T02:54:25.442Z,86.83
2018-09-04T02:56:52.550Z,87.00
2018-09-04T02:59:19.721Z,87.42
2018-09-04T03:01:46.996Z,87.32
2018-09-04T03:04:14.135Z,86.90
2018-09-04T03:06:41.249Z,87.84
2018-09-04T03:09:08.358Z,87.92
2018-09-04T03:11:35.458Z,87.85
2018-09-04T03:14:02.650Z,88.00
2018-09-04T03:16:29.671Z,87.52
2018-09-04T03:18:56.765Z,87.79
2018-09-04T03:21:23.877Z,86.60
2018-09-04T03:23:50.997Z,86.19
2018-09-04T03:26:18.121Z,84.98
2018-09-04T03:28:45.282Z,85.02
2018-09-04T03:31:12.383Z,84.49
2018-09-04T03:33:39.535Z,85.05
2018-09-04T03:36:06.721Z,84.43
2018-09-04T03:38:34.073Z,84.50
2018-09-04T03:41:01.168Z,83.09
2018-09-04T03:43:28.274Z,84.24
2018-09-04T03:45:55.389Z,83.00
2018-09-04T03:48:22.648Z,84.76
2018-09-04T03:50:49.793Z,84.76
2018-09-04T03:53:16.917Z,84.24
2018-09-04T03:55:44.014Z,83.82
2018-09-04T03:58:11.138Z,84.38
2018-09-04T04:00:38.268Z,83.98
2018-09-04T04:03:05.405Z,84.10
2018-09-04T04:05:32.829Z,83.82
2018-09-04T04:07:59.966Z,83.79
2018-09-04T04:10:27.062Z,83.02
2018-09-04T04:12:54.209Z,83.70
2018-09-04T04:15:21.573Z,83.61
2018-09-04T04:17:48.671Z,83.69
2018-09-04T04:20:15.801Z,83.48
2018-09-04T04:22:42.914Z,83.00
2018-09-04T04:25:10.007Z,82.56
2018-09-04T04:27:37.174Z,82.49
2018-09-04T04:30:05.041Z,82.89
2018-09-04T04:32:32.190Z,82.66
2018-09-04T04:34:59.404Z,82.30
2018-09-04T04:37:26.600Z,82.67
2018-09-04T04:39:53.822Z,82.37
2018-09-04T04:42:20.841Z,82.16
2018-09-04T04:44:48.027Z,82.29
2018-09-04T04:47:15.175Z,82.09
2018-09-04T04:49:42.297Z,82.03
2018-09-04T04:52:09.410Z,82.27
2018-09-04T04:54:36.489Z,81.31
2018-09-04T04:57:03.721Z,82.20
2018-09-04T04:59:30.832Z,81.99
2018-09-04T05:01:57.934Z,81.87
2018-09-04T05:04:25.025Z,81.78
2018-09-04T05:06:52.191Z,81.14
2018-09-04T05:09:19.331Z,81.61
2018-09-04T05:11:46.449Z,80.94
2018-09-04T05:14:13.536Z,80.95
2018-09-04T05:16:40.663Z,80.79
2018-09-04T05:19:07.747Z,81.33
2018-09-04T05:21:34.880Z,81.34
2018-09-04T05:24:02.042Z,80.77
2018-09-04T05:26:29.182Z,80.62
2018-09-04T05:28:56.319Z,80.70
2018-09-04T05:31:24.862Z,80.19
2018-09-04T05:33:52.017Z,80.88
2018-09-04T05:36:19.210Z,81.07
2018-09-04T05:38:46.803Z,81.42
2018-09-04T05:41:13.934Z,81.13
2018-09-04T05:43:51.514Z,81.43
2018-09-04T05:46:52.519Z,81.78
2018-09-04T05:49:22.559Z,80.96
2018-09-04T05:51:49.726Z,80.51
2018-09-04T05:54:16.874Z,80.96
2018-09-04T05:56:44.014Z,81.49
2018-09-04T05:59:11.107Z,81.28
2018-09-04T06:01:38.247Z,81.78
2018-09-04T06:04:05.409Z,81.02
2018-09-04T06:06:32.553Z,80.78
2018-09-04T06:09:00.624Z,81.00
2018-09-04T06:11:27.892Z,81.19
2018-09-04T06:13:55.014Z,80.97
2018-09-04T06:16:22.115Z,81.44
2018-09-04T06:18:50.447Z,80.97
2018-09-04T06:21:17.550Z,80.65
2018-09-04T06:23:45.035Z,81.54
2018-09-04T06:26:12.155Z,81.62
2018-09-04T06:28:39.282Z,81.82
2018-09-04T06:31:06.394Z,81.82
2018-09-04T06:33:33.525Z,81.51
2018-09-04T06:36:00.697Z,81.42
2018-09-04T06:38:27.867Z,81.40
2018-09-04T06:40:55.319Z,80.79
2018-09-04T06:43:22.464Z,80.14
2018-09-04T06:45:49.633Z,80.53
2018-09-04T06:48:16.741Z,80.52
2018-09-04T06:50:43.916Z,80.56
2018-09-04T06:53:11.086Z,80.54
2018-09-04T06:55:38.200Z,79.98
2018-09-04T06:58:05.393Z,79.86
2018-09-04T07:00:32.520Z,80.48
2018-09-04T07:02:59.826Z,79.52
2018-09-04T07:05:27.126Z,79.79
2018-09-04T07:07:54.678Z,79.82
2018-09-04T07:10:21.822Z,80.09
2018-09-04T07:12:49.026Z,79.41
2018-09-04T07:15:16.200Z,79.78
2018-09-04T07:17:43.301Z,78.99
2018-09-04T07:20:10.435Z,79.47
2018-09-04T07:22:37.666Z,79.41
2018-09-04T07:25:04.891Z,80.66
2018-09-04T07:27:32.051Z,79.83
2018-09-04T07:29:59.154Z,79.86
2018-09-04T07:32:26.303Z,79.81
2018-09-04T07:34:53.430Z,78.99
2018-09-04T07:37:20.574Z,79.38
2018-09-04T07:39:47.717Z,79.83
2018-09-04T07:42:14.937Z,78.56
2018-09-04T07:44:42.020Z,79.29
2018-09-04T07:47:09.194Z,79.49
2018-09-04T07:49:36.283Z,78.42
2018-09-04T07:52:04.108Z,79.04
2018-09-04T07:54:31.245Z,78.62
2018-09-04T07:56:58.464Z,78.52
2018-09-04T07:59:27.768Z,78.18
2018-09-04T08:01:54.913Z,76.85
2018-09-04T08:04:22.061Z,76.27
2018-09-04T08:06:49.215Z,76.15
2018-09-04T08:09:16.325Z,77.11
2018-09-04T08:11:43.415Z,76.77
2018-09-04T08:14:10.886Z,76.58
2018-09-04T08:16:38.022Z,76.89
2018-09-04T08:19:05.130Z,75.79
2018-09-04T08:21:34.819Z,75.40
2018-09-04T08:24:05.354Z,75.39
2018-09-04T08:26:32.516Z,75.58
2018-09-04T08:28:59.687Z,74.96
2018-09-04T08:31:26.846Z,75.47
2018-09-04T08:33:54.107Z,75.26
2018-09-04T08:36:21.218Z,74.80
2018-09-04T08:38:48.849Z,74.38
2018-09-04T08:41:15.977Z,73.60
2018-09-04T08:43:43.250Z,74.74
2018-09-04T08:46:10.365Z,75.05
2018-09-04T08:48:37.522Z,73.59
2018-09-04T08:51:04.735Z,73.05
2018-09-04T08:53:31.927Z,71.73
2018-09-04T08:55:59.026Z,73.27
2018-09-04T08:58:26.298Z,71.74
2018-09-04T09:00:53.480Z,71.55
2018-09-04T09:03:20.694Z,71.38
2018-09-04T09:05:47.855Z,72.05
2018-09-04T09:08:15.003Z,71.62
2018-09-04T09:10:42.248Z,71.49
2018-09-04T09:13:09.446Z,71.51
2018-09-04T09:15:36.802Z,70.84
2018-09-04T09:18:04.215Z,70.68
2018-09-04T09:20:31.545Z,70.62
2018-09-04T09:22:59.331Z,69.54
2018-09-04T09:25:26.678Z,67.42
2018-09-04T09:28:00.574Z,67.97
2018-09-04T09:30:27.965Z,68.58
2018-09-04T09:32:55.076Z,67.00
2018-09-04T09:35:22.444Z,66.02
2018-09-04T09:37:49.631Z,65.04
2018-09-04T09:42:43.486Z,63.12
2018-09-04T09:45:10.783Z,62.49
2018-09-04T09:47:52.784Z,64.05
2018-09-04T09:50:20.901Z,64.33
2018-09-04T09:52:48.679Z,63.14
2018-09-04T09:55:15.883Z,61.73
2018-09-04T09:57:42.970Z,61.03
2018-09-04T10:02:20.547Z,61.33
2018-09-04T10:04:47.911Z,61.09
2018-09-04T10:07:15.260Z,61.71
2018-09-04T10:09:42.590Z,60.63
2018-09-04T10:12:09.861Z,59.18
2018-09-04T10:14:36.993Z,59.77
2018-09-04T10:17:04.787Z,59.67
2018-09-04T10:19:32.077Z,58.50
2018-09-04T10:21:59.198Z,57.40
2018-09-04T10:24:26.663Z,58.58
2018-09-04T10:26:53.872Z,58.18
2018-09-04T10:29:21.013Z,57.69
2018-09-04T10:31:48.209Z,57.48
2018-09-04T10:34:15.954Z,56.74
2018-09-04T10:36:43.787Z,57.45
2018-09-04T10:39:16.753Z,57.24
2018-09-04T10:41:43.893Z,56.37
2018-09-04T10:44:11.076Z,56.03
2018-09-04T10:46:38.532Z,55.51
2018-09-04T10:49:05.709Z,54.77
2018-09-04T10:51:37.966Z,53.84
2018-09-04T10:54:05.512Z,52.18
2018-09-04T10:56:32.770Z,52.20
2018-09-04T10:59:00.067Z,50.33
2018-09-04T11:01:27.337Z,49.83
2018-09-04T11:03:55.250Z,49.04
2018-09-04T11:06:23.809Z,49.82
2018-09-04T11:08:50.997Z,51.75
2018-09-04T11:11:18.141Z,51.47
2018-09-04T11:13:45.582Z,51.91
2018-09-04T11:16:12.714Z,52.02
2018-09-04T11:18:39.831Z,50.87
2018-09-04T11:21:07.115Z,51.34
2018-09-04T11:23:34.378Z,51.14
2018-09-04T11:26:01.543Z,51.18
2018-09-04T11:28:28.837Z,51.34
2018-09-04T11:30:56.224Z,49.96
2018-09-04T11:33:23.413Z,49.44
2018-09-04T11:35:50.639Z,47.33
2018-09-04T11:38:17.793Z,47.59
2018-09-04T11:40:45.069Z,47.58
2018-09-04T11:43:12.564Z,47.83
2018-09-04T11:45:39.802Z,48.46
2018-09-04T11:48:07.218Z,48.20
2018-09-04T11:50:34.327Z,46.68
2018-09-04T11:53:01.505Z,47.48
2018-09-04T11:55:28.654Z,48.64
2018-09-04T11:57:55.934Z,47.56
2018-09-04T12:00:32.430Z,48.22
2018-09-04T12:02:59.621Z,49.27
2018-09-04T12:05:26.803Z,48.72
2018-09-04T12:07:53.987Z,47.68
2018-09-04T12:10:21.137Z,48.03
2018-09-04T12:12:48.325Z,47.07
2018-09-04T12:15:15.423Z,48.02
2018-09-04T12:17:42.544Z,46.72
2018-09-04T12:20:58.900Z,46.19
2018-09-04T12:23:25.902Z,46.34
2018-09-04T12:25:54.500Z,45.99
2018-09-04T12:28:21.622Z,46.38
2018-09-04T12:30:48.777Z,46.91
2018-09-04T12:33:15.924Z,44.12
2018-09-04T12:35:43.045Z,44.79
2018-09-04T12:38:11.856Z,43.92
2018-09-04T12:40:38.979Z,43.85
2018-09-04T12:43:06.086Z,42.81
2018-09-04T12:45:39.000Z,42.32
2018-09-04T12:48:06.236Z,42.81
2018-09-04T12:50:34.109Z,42.05
2018-09-04T12:53:01.388Z,41.93
2018-09-04T12:55:28.571Z,42.47
2018-09-04T12:57:55.708Z,42.68
2018-09-04T13:00:22.954Z,41.65
2018-09-04T13:02:50.229Z,40.93
2018-09-04T13:05:17.859Z,39.92
2018-09-04T13:07:45.057Z,40.34
2018-09-04T13:10:12.191Z,40.75
2018-09-04T13:12:39.398Z,41.86
2018-09-04T13:15:06.875Z,42.36
2018-09-04T13:17:34.040Z,42.22
2018-09-04T13:20:01.205Z,40.31
2018-09-04T13:22:28.335Z,41.93
2018-09-04T13:24:55.477Z,42.16
2018-09-04T13:27:22.614Z,43.35
2018-09-04T13:29:49.761Z,42.92
2018-09-04T13:32:17.174Z,44.32
2018-09-04T13:34:44.516Z,44.00
2018-09-04T13:37:11.621Z,43.14
2018-09-04T13:39:38.703Z,43.52
2018-09-04T13:42:06.426Z,42.65
2018-09-04T13:44:33.537Z,41.44
2018-09-04T13:47:00.811Z,42.90
2018-09-04T13:49:28.078Z,42.57
2018-09-04T13:51:55.198Z,42.31
2018-09-04T13:54:22.317Z,41.23
2018-09-04T13:56:49.454Z,40.88
2018-09-04T13:59:16.594Z,39.98
2018-09-04T14:01:43.798Z,37.53
2018-09-04T14:04:10.986Z,38.49
2018-09-04T14:06:38.130Z,38.72
2018-09-04T14:09:06.442Z,38.22
2018-09-04T14:11:33.730Z,37.93
2018-09-04T14:14:00.997Z,37.11
2018-09-04T14:16:28.019Z,37.87
2018-09-04T14:18:55.199Z,37.38
2018-09-04T14:21:22.349Z,38.27
2018-09-04T14:23:49.615Z,39.13
2018-09-04T14:26:16.899Z,39.73
2018-09-04T14:28:44.137Z,40.00
2018-09-04T14:31:11.314Z,40.46
2018-09-04T14:33:38.430Z,40.98
2018-09-04T14:36:05.677Z,42.32
2018-09-04T14:38:32.736Z,41.26
2018-09-04T14:40:59.870Z,42.67
2018-09-04T14:43:27.098Z,42.25
2018-09-04T14:45:54.254Z,42.72
2018-09-04T14:48:23.490Z,43.06
2018-09-04T14:50:50.642Z,43.67
2018-09-04T14:53:17.837Z,43.24
2018-09-04T14:55:44.925Z,44.08
2018-09-04T14:58:12.052Z,43.42
2018-09-04T15:00:39.193Z,44.11
2018-09-04T15:03:06.329Z,43.57
2018-09-04T15:05:36.917Z,44.15
2018-09-04T15:08:04.245Z,44.87
2018-09-04T15:10:31.376Z,45.21
2018-09-04T15:12:58.600Z,45.30
2018-09-04T15:15:25.803Z,45.15
2018-09-04T15:17:52.950Z,44.72
2018-09-04T15:20:20.156Z,44.68
2018-09-04T15:22:47.344Z,43.21
2018-09-04T15:25:14.599Z,42.16
2018-09-04T15:27:41.749Z,43.64
2018-09-04T15:30:08.985Z,43.64
2018-09-04T15:32:36.193Z,43.27
2018-09-04T15:35:03.408Z,43.58
2018-09-04T15:37:30.559Z,42.21
2018-09-04T15:39:57.708Z,42.21
2018-09-04T15:42:24.923Z,41.15
2018-09-04T15:44:52.047Z,39.44
2018-09-04T15:47:19.210Z,38.09
2018-09-04T15:49:47.345Z,37.15
2018-09-04T15:52:15.257Z,37.14
2018-09-04T15:54:42.466Z,36.56
2018-09-04T15:57:09.555Z,35.44
2018-09-04T15:59:36.810Z,34.92
2018-09-04T16:02:04.041Z,34.92
2018-09-04T16:04:31.202Z,33.78
2018-09-04T16:06:58.324Z,33.48
2018-09-04T16:09:25.661Z,35.37
2018-09-04T16:11:52.872Z,36.61
2018-09-04T16:14:20.018Z,36.75
2018-09-04T16:16:47.157Z,36.14
2018-09-04T16:19:14.274Z,35.70
2018-09-04T16:21:41.459Z,35.87
2018-09-04T16:24:08.908Z,34.75
2018-09-04T16:26:36.063Z,34.31
2018-09-04T16:29:03.154Z,34.17
2018-09-04T16:31:30.314Z,33.41
2018-09-04T16:33:57.425Z,33.25
2018-09-04T16:36:24.618Z,33.56
2018-09-04T16:38:51.729Z,33.82
2018-09-04T16:41:18.932Z,32.43
2018-09-04T16:43:46.289Z,33.72
2018-09-04T16:46:13.425Z,33.09
2018-09-04T16:48:40.605Z,33.10
2018-09-04T16:51:07.754Z,32.88
2018-09-04T16:53:34.862Z,34.21
2018-09-04T16:56:02.227Z,36.16
2018-09-04T16:58:30.358Z,36.03
2018-09-04T17:00:57.519Z,36.14
2018-09-04T17:03:24.687Z,36.17
2018-09-04T17:05:51.790Z,37.07
2018-09-04T17:08:18.918Z,37.07
2018-09-04T17:10:46.267Z,36.79
2018-09-04T17:13:13.491Z,40.27
2018-09-04T17:15:41.060Z,37.78
2018-09-04T17:18:08.256Z,39.11
2018-09-04T17:20:35.385Z,38.65
2018-09-04T17:23:02.541Z,41.93
2018-09-04T17:25:29.698Z,43.44
2018-09-04T17:27:56.907Z,44.51
2018-09-04T17:30:24.077Z,45.28
2018-09-04T17:32:52.215Z,44.44
2018-09-04T17:35:19.398Z,44.59
2018-09-04T17:37:46.662Z,44.88
2018-09-04T17:40:14.274Z,44.77
2018-09-04T17:42:41.514Z,44.82
2018-09-04T17:45:08.722Z,46.54
2018-09-04T17:47:35.883Z,46.19
2018-09-04T17:50:03.057Z,43.13
2018-09-04T17:52:30.172Z,44.92
2018-09-04T17:54:57.345Z,48.14
2018-09-04T17:57:24.506Z,47.82
2018-09-04T17:59:51.707Z,47.93
2018-09-04T18:02:18.921Z,47.98
2018-09-04T18:04:46.093Z,49.95
2018-09-04T18:07:13.282Z,50.30
2018-09-04T18:09:40.485Z,50.47
2018-09-04T18:12:07.647Z,51.57
2018-09-04T18:14:35.616Z,51.59
2018-09-04T18:17:03.790Z,50.87
2018-09-04T18:19:31.013Z,51.01
2018-09-04T18:21:58.240Z,51.04
2018-09-04T18:24:25.442Z,51.16
2018-09-04T18:26:52.678Z,51.20
2018-09-04T18:29:19.811Z,50.76
2018-09-04T18:31:46.994Z,51.71
2018-09-04T18:34:14.347Z,52.00
2018-09-04T18:36:41.530Z,51.77
2018-09-04T18:39:08.737Z,52.51
2018-09-04T18:41:37.411Z,52.90
2018-09-04T18:44:05.531Z,52.19
2018-09-04T18:46:32.739Z,52.95
2018-09-04T18:49:00.411Z,53.36
2018-09-04T18:51:27.577Z,53.55
2018-09-04T18:53:55.260Z,54.36
2018-09-04T18:56:22.462Z,54.75
2018-09-04T18:58:49.844Z,55.89
2018-09-04T19:01:17.054Z,55.66
2018-09-04T19:03:44.252Z,54.97
2018-09-04T19:06:11.448Z,55.99
2018-09-04T19:08:38.668Z,55.61
2018-09-04T19:11:05.891Z,56.25
2018-09-04T19:13:33.079Z,57.73
2018-09-04T19:16:00.199Z,58.06
2018-09-04T19:18:27.450Z,58.00
2018-09-04T19:20:54.687Z,59.27
2018-09-04T19:23:21.907Z,58.75
2018-09-04T19:25:49.144Z,58.43
2018-09-04T19:28:16.354Z,58.32
2018-09-04T19:30:43.542Z,57.88
2018-09-04T19:33:10.731Z,57.80
2018-09-04T19:35:37.915Z,58.60
2018-09-04T19:38:05.128Z,58.81
2018-09-04T19:40:32.309Z,58.22
2018-09-04T19:43:01.741Z,58.24
2018-09-04T19:45:29.145Z,57.50
2018-09-04T19:47:56.624Z,58.43
2018-09-04T19:50:23.958Z,58.73
2018-09-04T19:52:51.125Z,59.18
2018-09-04T19:55:18.441Z,58.73
2018-09-04T19:57:45.656Z,58.67
2018-09-04T20:00:12.985Z,58.83
2018-09-04T20:02:41.002Z,59.15
2018-09-04T20:05:08.926Z,58.30
2018-09-04T20:07:36.141Z,59.38
2018-09-04T20:10:03.411Z,58.63
2018-09-04T20:12:30.799Z,58.43
2018-09-04T20:14:57.975Z,58.29
2018-09-04T20:17:25.248Z,59.47
2018-09-04T20:19:52.726Z,59.96
2018-09-04T20:22:19.947Z,60.12
2018-09-04T20:24:47.242Z,61.38
2018-09-04T20:27:14.695Z,61.70
2018-09-04T20:29:42.060Z,62.39
2018-09-04T20:32:11.883Z,61.48
2018-09-04T20:34:39.303Z,61.76
2018-09-04T20:37:06.540Z,62.26
2018-09-04T20:39:33.749Z,62.23
2018-09-04T20:42:01.019Z,62.23
2018-09-04T20:44:28.292Z,63.00
2018-09-04T20:49:29.476Z,62.50
2018-09-04T20:51:56.680Z,63.28
2018-09-04T20:54:24.049Z,63.75
2018-09-04T20:57:26.802Z,63.33
2018-09-04T21:00:06.462Z,64.54
2018-09-04T21:02:45.522Z,64.75
2018-09-04T21:05:24.573Z,64.78
2018-09-04T21:10:07.789Z,65.45
2018-09-04T21:12:34.952Z,65.53
2018-09-04T21:15:02.159Z,65.17
2018-09-04T21:17:29.437Z,65.22
2018-09-04T21:19:56.680Z,65.33
2018-09-04T21:22:23.901Z,64.50
2018-09-04T21:24:51.252Z,64.62
2018-09-04T21:27:18.737Z,64.73
2018-09-04T21:29:45.913Z,64.64
2018-09-04T21:32:13.145Z,65.39
2018-09-04T21:34:40.837Z,64.83
2018-09-04T21:37:08.203Z,64.76
2018-09-04T21:39:35.443Z,65.04
2018-09-04T21:42:02.601Z,64.86
2018-09-04T21:44:29.804Z,64.75
2018-09-04T21:46:57.029Z,64.94
2018-09-04T21:49:24.278Z,65.32
2018-09-04T21:51:51.498Z,64.78
2018-09-04T21:54:18.671Z,65.05
2018-09-04T21:56:45.811Z,66.06
2018-09-04T21:59:12.985Z,65.39
2018-09-04T22:01:40.154Z,65.88
2018-09-04T22:04:07.365Z,65.91
2018-09-04T22:06:34.554Z,66.12
2018-09-04T22:09:01.745Z,67.40
2018-09-04T22:11:28.913Z,67.54
2018-09-04T22:13:56.054Z,67.43
2018-09-04T22:16:23.231Z,67.56
2018-09-04T22:18:50.390Z,67.18
2018-09-04T22:21:17.585Z,67.56
2018-09-04T22:23:44.707Z,66.83
2018-09-04T22:26:11.893Z,67.08
2018-09-04T22:28:39.176Z,67.54
2018-09-04T22:31:06.381Z,67.87
2018-09-04T22:33:33.516Z,67.64
2018-09-04T22:36:00.690Z,68.53
2018-09-04T22:38:27.813Z,68.48
2018-09-04T22:40:54.994Z,69.24
2018-09-04T22:43:22.144Z,69.03
2018-09-04T22:45:49.337Z,68.77
2018-09-04T22:48:16.478Z,68.84
2018-09-04T22:50:49.538Z,68.60
2018-09-04T22:53:16.629Z,69.90
2018-09-04T22:55:43.788Z,69.84
2018-09-04T22:58:10.994Z,69.42
2018-09-04T23:00:38.094Z,69.33
2018-09-04T23:03:05.727Z,69.62
2018-09-04T23:05:33.670Z,70.06
2018-09-04T23:08:00.872Z,69.91
2018-09-04T23:10:28.098Z,70.51
2018-09-04T23:12:55.282Z,69.98
2018-09-04T23:15:22.409Z,69.84
2018-09-04T23:17:49.551Z,70.57
2018-09-04T23:20:16.658Z,70.93
2018-09-04T23:22:43.979Z,70.43
2018-09-04T23:25:11.185Z,71.58
2018-09-04T23:27:38.314Z,70.99
2018-09-04T23:30:05.485Z,70.94
2018-09-04T23:32:32.644Z,71.50
2018-09-04T23:34:59.805Z,71.32
2018-09-04T23:37:26.973Z,71.84
2018-09-04T23:39:54.149Z,72.25
2018-09-04T23:42:21.243Z,72.61
2018-09-04T23:44:48.450Z,72.61
2018-09-04T23:47:15.597Z,72.54
2018-09-04T23:49:42.745Z,72.34
2018-09-04T23:52:09.847Z,71.85
2018-09-04T23:54:37.026Z,72.20
2018-09-04T23:57:04.281Z,71.45
2018-09-04T23:59:31.410Z,71.45
